sensor_id;sensor_type;location;lat;lon;timestamp;pressure;altitude;pressure_sealevel;temperature;humidity
3440;BME280;1733;42.286;22.690;2023-03-31T07:29:45;95606.06;;;13.52;71.21
3440;BME280;1733;42.286;22.690;2023-03-31T07:32:12;95607.28;;;13.12;72.99
3440;BME280;1733;42.286;22.690;2023-03-31T07:34:39;95604.09;;;13.10;75.42
3440;BME280;1733;42.286;22.690;2023-03-31T07:37:06;95591.56;;;12.95;76.18
3440;BME280;1733;42.286;22.690;2023-03-31T07:59:46;95580.19;;;13.96;73.93
3440;BME280;1733;42.286;22.690;2023-03-31T09:06:34;95448.13;;;19.17;51.03
3440;BME280;1733;42.286;22.690;2023-03-31T09:09:06;95450.84;;;19.44;48.38
3440;BME280;1733;42.286;22.690;2023-03-31T09:11:41;95441.69;;;19.91;46.82
3440;BME280;1733;42.286;22.690;2023-03-31T09:14:19;95436.31;;;19.50;43.93
3440;BME280;1733;42.286;22.690;2023-03-31T09:16:53;95437.06;;;19.23;42.21
3440;BME280;1733;42.286;22.690;2023-03-31T09:19:32;95440.97;;;18.98;41.40
3440;BME280;1733;42.286;22.690;2023-03-31T09:22:03;95434.53;;;18.99;41.18
3440;BME280;1733;42.286;22.690;2023-03-31T09:24:35;95429.25;;;19.13;40.99
3440;BME280;1733;42.286;22.690;2023-03-31T09:27:11;95424.81;;;19.08;40.35
3440;BME280;1733;42.286;22.690;2023-03-31T09:29:41;95426.41;;;19.23;40.48
3440;BME280;1733;42.286;22.690;2023-03-31T09:32:14;95432.13;;;19.17;40.60
3440;BME280;1733;42.286;22.690;2023-03-31T09:34:42;95435.94;;;18.97;40.55
3440;BME280;1733;42.286;22.690;2023-03-31T09:37:12;95419.91;;;19.29;40.58
3440;BME280;1733;42.286;22.690;2023-03-31T09:39:39;95420.72;;;19.44;40.09
3440;BME280;1733;42.286;22.690;2023-03-31T09:42:09;95400.59;;;19.79;40.38
3440;BME280;1733;42.286;22.690;2023-03-31T09:44:39;95406.47;;;19.34;39.57
3440;BME280;1733;42.286;22.690;2023-03-31T09:47:12;95402.84;;;19.44;40.71
3440;BME280;1733;42.286;22.690;2023-03-31T09:49:44;95409.88;;;19.81;39.14
3440;BME280;1733;42.286;22.690;2023-03-31T09:52:19;95402.28;;;19.75;38.71
3440;BME280;1733;42.286;22.690;2023-03-31T09:54:50;95393.28;;;19.71;39.95
3440;BME280;1733;42.286;22.690;2023-03-31T09:57:24;95379.16;;;19.70;40.87
3440;BME280;1733;42.286;22.690;2023-03-31T09:59:51;95377.56;;;19.83;39.23
3440;BME280;1733;42.286;22.690;2023-03-31T10:02:34;95377.69;;;19.78;39.37
3440;BME280;1733;42.286;22.690;2023-03-31T10:05:03;95369.84;;;19.81;38.74
3440;BME280;1733;42.286;22.690;2023-03-31T10:07:31;95370.94;;;19.80;39.04
3440;BME280;1733;42.286;22.690;2023-03-31T10:09:59;95369.88;;;20.17;38.82
3440;BME280;1733;42.286;22.690;2023-03-31T10:12:28;95356.56;;;20.04;38.55
3440;BME280;1733;42.286;22.690;2023-03-31T10:15:10;95356.38;;;20.00;39.31
3440;BME280;1733;42.286;22.690;2023-03-31T10:17:43;95359.19;;;19.95;38.99
3440;BME280;1733;42.286;22.690;2023-03-31T10:20:19;95344.38;;;20.11;38.62
3440;BME280;1733;42.286;22.690;2023-03-31T10:22:49;95340.13;;;20.10;38.72
3440;BME280;1733;42.286;22.690;2023-03-31T10:25:20;95347.72;;;20.17;39.60
3440;BME280;1733;42.286;22.690;2023-03-31T10:27:50;95352.41;;;20.34;38.89
3440;BME280;1733;42.286;22.690;2023-03-31T10:30:21;95315.47;;;20.27;39.64
3440;BME280;1733;42.286;22.690;2023-03-31T10:32:49;95330.59;;;20.32;39.09
3440;BME280;1733;42.286;22.690;2023-03-31T10:35:22;95342.53;;;20.48;39.17
3440;BME280;1733;42.286;22.690;2023-03-31T10:37:54;95330.63;;;20.54;38.47
3440;BME280;1733;42.286;22.690;2023-03-31T10:40:24;95330.81;;;20.89;38.21
3440;BME280;1733;42.286;22.690;2023-03-31T10:43:00;95315.06;;;20.56;38.63
3440;BME280;1733;42.286;22.690;2023-03-31T10:45:29;95348.09;;;20.02;39.05
3440;BME280;1733;42.286;22.690;2023-03-31T10:47:58;95326.63;;;19.93;39.38
3440;BME280;1733;42.286;22.690;2023-03-31T10:50:27;95311.78;;;19.51;39.72
3440;BME280;1733;42.286;22.690;2023-03-31T10:53:02;95312.66;;;19.46;40.21
3440;BME280;1733;42.286;22.690;2023-03-31T10:55:34;95305.97;;;19.21;40.17
3440;BME280;1733;42.286;22.690;2023-03-31T10:58:08;95305.06;;;19.12;40.39
3440;BME280;1733;42.286;22.690;2023-03-31T11:00:47;95311.31;;;19.21;40.89
3440;BME280;1733;42.286;22.690;2023-03-31T11:03:41;95299.81;;;19.07;40.60
3440;BME280;1733;42.286;22.690;2023-03-31T11:06:16;95291.25;;;18.96;41.01
3440;BME280;1733;42.286;22.690;2023-03-31T11:08:56;95284.94;;;19.20;41.39
3440;BME280;1733;42.286;22.690;2023-03-31T11:11:45;95280.88;;;19.36;40.46
3440;BME280;1733;42.286;22.690;2023-03-31T11:14:19;95278.72;;;19.38;40.57
3440;BME280;1733;42.286;22.690;2023-03-31T11:16:54;95277.34;;;19.27;40.96
3440;BME280;1733;42.286;22.690;2023-03-31T11:19:31;95270.91;;;19.28;40.72
3440;BME280;1733;42.286;22.690;2023-03-31T11:22:08;95262.41;;;19.39;40.59
3440;BME280;1733;42.286;22.690;2023-03-31T11:24:56;95259.25;;;19.37;41.17
3440;BME280;1733;42.286;22.690;2023-03-31T11:27:39;95260.84;;;19.38;40.74
3440;BME280;1733;42.286;22.690;2023-03-31T11:30:18;95254.72;;;19.10;41.16
3440;BME280;1733;42.286;22.690;2023-03-31T11:33:01;95246.03;;;19.19;41.08
3440;BME280;1733;42.286;22.690;2023-03-31T11:35:42;95237.97;;;19.10;41.24
3440;BME280;1733;42.286;22.690;2023-03-31T11:38:32;95230.66;;;19.16;41.06
3440;BME280;1733;42.286;22.690;2023-03-31T11:41:07;95221.06;;;19.28;41.67
3440;BME280;1733;42.286;22.690;2023-03-31T11:43:40;95205.06;;;19.28;41.07
3440;BME280;1733;42.286;22.690;2023-03-31T11:46:11;95216.88;;;19.50;39.93
3440;BME280;1733;42.286;22.690;2023-03-31T11:48:42;95207.84;;;19.96;39.38
3440;BME280;1733;42.286;22.690;2023-03-31T11:51:16;95206.13;;;20.22;39.29
3440;BME280;1733;42.286;22.690;2023-03-31T11:53:46;95203.97;;;20.95;38.23
3440;BME280;1733;42.286;22.690;2023-03-31T11:56:16;95191.25;;;21.09;36.69
3440;BME280;1733;42.286;22.690;2023-03-31T11:58:46;95197.97;;;20.89;37.43
3440;BME280;1733;42.286;22.690;2023-03-31T12:01:20;95176.59;;;20.98;37.29
3440;BME280;1733;42.286;22.690;2023-03-31T12:03:54;95174.78;;;21.24;36.94
3440;BME280;1733;42.286;22.690;2023-03-31T12:06:26;95164.13;;;21.94;37.66
3440;BME280;1733;42.286;22.690;2023-03-31T12:09:02;95163.03;;;21.77;35.84
3440;BME280;1733;42.286;22.690;2023-03-31T12:11:37;95152.97;;;21.57;35.83
3440;BME280;1733;42.286;22.690;2023-03-31T12:14:14;95165.16;;;21.15;35.91
3440;BME280;1733;42.286;22.690;2023-03-31T12:16:50;95141.22;;;20.92;35.75
3440;BME280;1733;42.286;22.690;2023-03-31T12:19:21;95141.97;;;20.76;36.27
3440;BME280;1733;42.286;22.690;2023-03-31T12:21:55;95133.56;;;20.99;36.46
3440;BME280;1733;42.286;22.690;2023-03-31T12:24:22;95139.56;;;21.31;35.53
3440;BME280;1733;42.286;22.690;2023-03-31T12:27:02;95132.28;;;22.01;35.22
3440;BME280;1733;42.286;22.690;2023-03-31T12:29:33;95136.72;;;22.52;34.03
3440;BME280;1733;42.286;22.690;2023-03-31T12:32:04;95146.16;;;21.94;34.15
3440;BME280;1733;42.286;22.690;2023-03-31T12:34:34;95129.69;;;21.58;34.76
3440;BME280;1733;42.286;22.690;2023-03-31T12:40:07;95128.53;;;21.24;33.51
3440;BME280;1733;42.286;22.690;2023-03-31T12:42:47;95131.56;;;21.31;34.42
3440;BME280;1733;42.286;22.690;2023-03-31T12:45:25;95112.47;;;20.89;35.17
3440;BME280;1733;42.286;22.690;2023-03-31T12:48:14;95106.44;;;20.66;35.52
3440;BME280;1733;42.286;22.690;2023-03-31T12:50:55;95109.47;;;20.82;35.45
3440;BME280;1733;42.286;22.690;2023-03-31T12:53:30;95099.59;;;21.00;34.52
3440;BME280;1733;42.286;22.690;2023-03-31T12:55:59;95108.22;;;20.88;34.70
3440;BME280;1733;42.286;22.690;2023-03-31T12:58:42;95098.03;;;21.25;34.59
3440;BME280;1733;42.286;22.690;2023-03-31T13:01:17;95085.78;;;21.41;33.75
3440;BME280;1733;42.286;22.690;2023-03-31T13:03:53;95080.88;;;21.09;34.24
3440;BME280;1733;42.286;22.690;2023-03-31T13:06:55;95083.19;;;20.67;34.80
3440;BME280;1733;42.286;22.690;2023-03-31T13:09:43;95072.84;;;21.00;35.21
3440;BME280;1733;42.286;22.690;2023-03-31T13:12:16;95067.03;;;21.50;34.11
3440;BME280;1733;42.286;22.690;2023-03-31T13:14:46;95067.78;;;21.76;34.07
3440;BME280;1733;42.286;22.690;2023-03-31T13:17:20;95066.72;;;21.60;33.80
3440;BME280;1733;42.286;22.690;2023-03-31T13:19:49;95048.75;;;21.69;34.14
3440;BME280;1733;42.286;22.690;2023-03-31T13:22:31;95052.97;;;23.15;31.94
3440;BME280;1733;42.286;22.690;2023-03-31T13:25:36;95041.13;;;24.39;30.60
3440;BME280;1733;42.286;22.690;2023-03-31T13:30:58;95017.19;;;25.83;28.39
3440;BME280;1733;42.286;22.690;2023-03-31T13:33:41;95007.19;;;26.31;27.81
3440;BME280;1733;42.286;22.690;2023-03-31T13:36:38;95002.69;;;27.25;27.48
3440;BME280;1733;42.286;22.690;2023-03-31T13:39:29;95004.16;;;27.80;25.96
3440;BME280;1733;42.286;22.690;2023-03-31T13:42:13;95008.63;;;26.95;26.25
3440;BME280;1733;42.286;22.690;2023-03-31T13:47:59;94988.84;;;25.30;27.80
3440;BME280;1733;42.286;22.690;2023-03-31T13:50:56;94980.59;;;24.82;28.64
3440;BME280;1733;42.286;22.690;2023-03-31T13:53:55;94976.81;;;23.73;29.62
3440;BME280;1733;42.286;22.690;2023-03-31T13:56:39;94974.06;;;23.49;29.75
3440;BME280;1733;42.286;22.690;2023-03-31T14:02:18;94971.25;;;24.03;29.58
3440;BME280;1733;42.286;22.690;2023-03-31T14:05:22;94980.31;;;24.47;28.92
3440;BME280;1733;42.286;22.690;2023-03-31T14:07:54;94971.44;;;25.71;27.65
3440;BME280;1733;42.286;22.690;2023-03-31T14:10:23;94984.94;;;26.50;26.36
3440;BME280;1733;42.286;22.690;2023-03-31T14:13:04;94990.41;;;26.73;26.10
3440;BME280;1733;42.286;22.690;2023-03-31T14:15:31;94970.25;;;26.16;26.69
3440;BME280;1733;42.286;22.690;2023-03-31T14:17:58;94978.06;;;26.72;25.77
3440;BME280;1733;42.286;22.690;2023-03-31T14:20:31;94965.41;;;27.30;25.25
3440;BME280;1733;42.286;22.690;2023-03-31T14:23:09;94960.19;;;28.06;24.44
3440;BME280;1733;42.286;22.690;2023-03-31T14:25:45;94970.84;;;27.96;24.36
3440;BME280;1733;42.286;22.690;2023-03-31T14:28:25;94953.63;;;27.62;24.85
3440;BME280;1733;42.286;22.690;2023-03-31T14:31:09;94948.34;;;28.15;24.21
3440;BME280;1733;42.286;22.690;2023-03-31T14:33:42;94944.56;;;29.02;23.14
3440;BME280;1733;42.286;22.690;2023-03-31T14:36:20;94934.44;;;29.29;23.21
3440;BME280;1733;42.286;22.690;2023-03-31T14:38:50;94944.38;;;28.88;23.28
3440;BME280;1733;42.286;22.690;2023-03-31T14:41:18;94934.44;;;28.69;23.60
3440;BME280;1733;42.286;22.690;2023-03-31T14:43:55;94939.13;;;27.93;24.37
3440;BME280;1733;42.286;22.690;2023-03-31T14:46:23;94939.75;;;27.63;24.23
3440;BME280;1733;42.286;22.690;2023-03-31T14:48:50;94948.25;;;26.65;25.05
3440;BME280;1733;42.286;22.690;2023-03-31T14:51:26;94939.91;;;26.70;25.08
3440;BME280;1733;42.286;22.690;2023-03-31T14:53:57;94943.06;;;27.11;25.28
3440;BME280;1733;42.286;22.690;2023-03-31T14:56:29;94939.34;;;26.99;25.10
3440;BME280;1733;42.286;22.690;2023-03-31T14:59:00;94931.72;;;28.13;24.03
3440;BME280;1733;42.286;22.690;2023-03-31T15:01:30;94927.25;;;27.74;24.48
3440;BME280;1733;42.286;22.690;2023-03-31T15:04:00;94938.13;;;27.78;24.30
3440;BME280;1733;42.286;22.690;2023-03-31T15:06:32;94931.34;;;28.41;24.09
3440;BME280;1733;42.286;22.690;2023-03-31T15:09:02;94932.84;;;28.11;24.38
3440;BME280;1733;42.286;22.690;2023-03-31T15:11:29;94937.44;;;27.62;24.51
3440;BME280;1733;42.286;22.690;2023-03-31T15:13:58;94938.34;;;27.92;24.23
3440;BME280;1733;42.286;22.690;2023-03-31T15:16:32;94932.59;;;27.28;24.67
3440;BME280;1733;42.286;22.690;2023-03-31T15:19:04;94927.22;;;27.51;24.55
3440;BME280;1733;42.286;22.690;2023-03-31T15:21:36;94931.47;;;27.98;24.34
3440;BME280;1733;42.286;22.690;2023-03-31T15:24:04;94929.72;;;28.62;23.95
3440;BME280;1733;42.286;22.690;2023-03-31T15:26:34;94943.16;;;28.85;23.47
3440;BME280;1733;42.286;22.690;2023-03-31T15:29:06;94932.34;;;27.79;24.22
3440;BME280;1733;42.286;22.690;2023-03-31T15:31:34;94928.72;;;27.95;24.07
3440;BME280;1733;42.286;22.690;2023-03-31T15:34:12;94925.81;;;27.38;24.58
3440;BME280;1733;42.286;22.690;2023-03-31T15:36:42;94928.31;;;26.50;25.84
3440;BME280;1733;42.286;22.690;2023-03-31T15:39:09;94919.25;;;26.07;25.88
3440;BME280;1733;42.286;22.690;2023-03-31T15:41:37;94914.78;;;25.36;27.03
3440;BME280;1733;42.286;22.690;2023-03-31T15:44:06;94922.31;;;25.74;26.79
3440;BME280;1733;42.286;22.690;2023-03-31T15:46:56;94909.72;;;27.22;25.44
3440;BME280;1733;42.286;22.690;2023-03-31T15:49:24;94916.22;;;28.09;24.69
3440;BME280;1733;42.286;22.690;2023-03-31T15:51:54;94917.25;;;27.33;25.12
3440;BME280;1733;42.286;22.690;2023-03-31T15:54:36;94907.41;;;27.44;25.44
3440;BME280;1733;42.286;22.690;2023-03-31T15:57:04;94910.63;;;27.99;24.59
3440;BME280;1733;42.286;22.690;2023-03-31T15:59:43;94914.34;;;28.67;24.25
3440;BME280;1733;42.286;22.690;2023-03-31T16:02:14;94908.38;;;28.01;24.69
3440;BME280;1733;42.286;22.690;2023-03-31T16:04:42;94901.63;;;26.84;25.51
3440;BME280;1733;42.286;22.690;2023-03-31T16:07:15;94903.97;;;24.64;27.66
3440;BME280;1733;42.286;22.690;2023-03-31T16:09:47;94902.88;;;23.18;29.23
3440;BME280;1733;42.286;22.690;2023-03-31T16:12:19;94917.94;;;22.56;30.20
3440;BME280;1733;42.286;22.690;2023-03-31T16:14:50;94908.50;;;22.29;30.65
3440;BME280;1733;42.286;22.690;2023-03-31T16:17:23;94903.75;;;21.76;31.41
3440;BME280;1733;42.286;22.690;2023-03-31T16:19:56;94910.69;;;21.21;32.04
3440;BME280;1733;42.286;22.690;2023-03-31T16:22:29;94908.56;;;20.89;32.32
3440;BME280;1733;42.286;22.690;2023-03-31T16:25:00;94904.94;;;20.33;33.41
3440;BME280;1733;42.286;22.690;2023-03-31T16:27:27;94900.50;;;20.02;34.33
3440;BME280;1733;42.286;22.690;2023-03-31T16:30:05;94902.03;;;19.77;34.62
3440;BME280;1733;42.286;22.690;2023-03-31T16:32:32;94898.50;;;19.59;34.98
3440;BME280;1733;42.286;22.690;2023-03-31T16:35:01;94893.88;;;19.43;35.36
3440;BME280;1733;42.286;22.690;2023-03-31T16:37:30;94897.13;;;19.31;35.32
3440;BME280;1733;42.286;22.690;2023-03-31T16:39:57;94900.00;;;19.12;35.83
3440;BME280;1733;42.286;22.690;2023-03-31T16:42:23;94897.72;;;18.97;36.00
3440;BME280;1733;42.286;22.690;2023-03-31T16:44:51;94892.97;;;18.85;36.14
3440;BME280;1733;42.286;22.690;2023-03-31T16:47:18;94891.13;;;18.72;36.32
3440;BME280;1733;42.286;22.690;2023-03-31T16:49:45;94894.03;;;18.61;36.83
3440;BME280;1733;42.286;22.690;2023-03-31T16:52:11;94900.28;;;18.43;37.26
3440;BME280;1733;42.286;22.690;2023-03-31T16:54:40;94899.13;;;18.35;38.30
3440;BME280;1733;42.286;22.690;2023-03-31T16:57:06;94899.97;;;18.22;38.07
3440;BME280;1733;42.286;22.690;2023-03-31T16:59:33;94903.03;;;18.16;38.00
3440;BME280;1733;42.286;22.690;2023-03-31T17:02:00;94895.38;;;18.00;38.82
3440;BME280;1733;42.286;22.690;2023-03-31T17:04:27;94904.66;;;17.89;38.03
3440;BME280;1733;42.286;22.690;2023-03-31T17:06:54;94893.84;;;17.72;40.07
3440;BME280;1733;42.286;22.690;2023-03-31T17:09:21;94895.00;;;17.52;40.79
3440;BME280;1733;42.286;22.690;2023-03-31T17:11:49;94904.75;;;17.29;40.67
3440;BME280;1733;42.286;22.690;2023-03-31T17:14:15;94901.88;;;17.12;41.15
3440;BME280;1733;42.286;22.690;2023-03-31T17:16:43;94897.22;;;17.03;42.32
3440;BME280;1733;42.286;22.690;2023-03-31T17:19:10;94902.50;;;16.90;42.64
3440;BME280;1733;42.286;22.690;2023-03-31T17:21:37;94902.00;;;16.69;44.18
3440;BME280;1733;42.286;22.690;2023-03-31T17:24:06;94894.06;;;16.50;44.08
3440;BME280;1733;42.286;22.690;2023-03-31T17:26:33;94901.13;;;16.41;44.45
3440;BME280;1733;42.286;22.690;2023-03-31T17:29:03;94919.78;;;16.36;45.35
3440;BME280;1733;42.286;22.690;2023-03-31T17:31:30;94911.00;;;16.16;45.72
3440;BME280;1733;42.286;22.690;2023-03-31T17:33:57;94905.94;;;16.01;45.59
3440;BME280;1733;42.286;22.690;2023-03-31T17:36:26;94917.16;;;15.93;46.04
3440;BME280;1733;42.286;22.690;2023-03-31T17:38:53;94920.41;;;15.90;46.48
3440;BME280;1733;42.286;22.690;2023-03-31T17:41:20;94920.03;;;15.78;46.97
3440;BME280;1733;42.286;22.690;2023-03-31T17:43:47;94926.78;;;15.65;46.98
3440;BME280;1733;42.286;22.690;2023-03-31T17:46:16;94928.44;;;15.56;47.80
3440;BME280;1733;42.286;22.690;2023-03-31T17:48:43;94923.09;;;15.37;48.21
3440;BME280;1733;42.286;22.690;2023-03-31T17:51:12;94918.19;;;15.25;48.44
3440;BME280;1733;42.286;22.690;2023-03-31T17:53:39;94924.59;;;15.19;49.26
3440;BME280;1733;42.286;22.690;2023-03-31T17:56:07;94932.81;;;15.17;50.10
3440;BME280;1733;42.286;22.690;2023-03-31T17:58:34;94930.41;;;14.92;50.71
3440;BME280;1733;42.286;22.690;2023-03-31T18:01:03;94933.75;;;14.74;51.22
3440;BME280;1733;42.286;22.690;2023-03-31T18:03:33;94925.06;;;14.68;50.97
3440;BME280;1733;42.286;22.690;2023-03-31T18:06:04;94922.97;;;14.60;51.44
3440;BME280;1733;42.286;22.690;2023-03-31T18:08:31;94925.13;;;14.58;52.05
3440;BME280;1733;42.286;22.690;2023-03-31T18:10:59;94926.72;;;14.54;52.38
3440;BME280;1733;42.286;22.690;2023-03-31T18:13:26;94919.16;;;14.32;52.48
3440;BME280;1733;42.286;22.690;2023-03-31T18:15:53;94918.94;;;14.28;53.04
3440;BME280;1733;42.286;22.690;2023-03-31T18:18:20;94932.22;;;14.18;53.23
3440;BME280;1733;42.286;22.690;2023-03-31T18:20:52;94920.38;;;14.10;53.84
3440;BME280;1733;42.286;22.690;2023-03-31T18:23:19;94921.97;;;14.06;53.62
3440;BME280;1733;42.286;22.690;2023-03-31T18:25:46;94922.31;;;13.90;54.35
3440;BME280;1733;42.286;22.690;2023-03-31T18:28:16;94918.72;;;13.75;54.30
3440;BME280;1733;42.286;22.690;2023-03-31T18:30:45;94917.38;;;13.78;54.55
3440;BME280;1733;42.286;22.690;2023-03-31T18:33:12;94913.63;;;13.84;54.20
3440;BME280;1733;42.286;22.690;2023-03-31T18:35:39;94917.59;;;13.87;54.90
3440;BME280;1733;42.286;22.690;2023-03-31T18:38:07;94913.41;;;13.80;55.17
3440;BME280;1733;42.286;22.690;2023-03-31T18:40:34;94916.63;;;13.67;55.04
3440;BME280;1733;42.286;22.690;2023-03-31T18:43:02;94917.72;;;13.56;55.24
3440;BME280;1733;42.286;22.690;2023-03-31T18:45:29;94904.56;;;13.41;55.69
3440;BME280;1733;42.286;22.690;2023-03-31T18:47:56;94913.31;;;13.26;57.21
3440;BME280;1733;42.286;22.690;2023-03-31T18:50:23;94922.56;;;13.34;57.43
3440;BME280;1733;42.286;22.690;2023-03-31T18:52:50;94912.81;;;13.24;57.31
3440;BME280;1733;42.286;22.690;2023-03-31T18:55:20;94916.78;;;13.11;58.05
3440;BME280;1733;42.286;22.690;2023-03-31T18:57:47;94912.53;;;13.15;57.17
3440;BME280;1733;42.286;22.690;2023-03-31T19:00:14;94915.16;;;13.15;56.83
3440;BME280;1733;42.286;22.690;2023-03-31T19:02:41;94919.63;;;13.20;57.05
3440;BME280;1733;42.286;22.690;2023-03-31T19:05:08;94913.59;;;13.24;56.56
3440;BME280;1733;42.286;22.690;2023-03-31T19:07:35;94917.00;;;13.15;57.04
3440;BME280;1733;42.286;22.690;2023-03-31T19:10:02;94923.63;;;13.02;57.38
3440;BME280;1733;42.286;22.690;2023-03-31T19:12:31;94927.06;;;12.92;57.58
3440;BME280;1733;42.286;22.690;2023-03-31T19:14:58;94927.06;;;12.92;57.76
3440;BME280;1733;42.286;22.690;2023-03-31T19:17:24;94928.91;;;12.87;58.22
3440;BME280;1733;42.286;22.690;2023-03-31T19:19:51;94909.16;;;12.84;58.76
3440;BME280;1733;42.286;22.690;2023-03-31T19:22:21;94917.34;;;12.83;58.91
3440;BME280;1733;42.286;22.690;2023-03-31T19:24:49;94931.81;;;12.95;58.72
3440;BME280;1733;42.286;22.690;2023-03-31T19:27:16;94932.63;;;12.86;59.06
3440;BME280;1733;42.286;22.690;2023-03-31T19:29:44;94927.59;;;12.74;59.66
3440;BME280;1733;42.286;22.690;2023-03-31T19:32:11;94932.91;;;12.84;59.71
3440;BME280;1733;42.286;22.690;2023-03-31T19:34:38;94930.78;;;12.71;59.92
3440;BME280;1733;42.286;22.690;2023-03-31T19:37:05;94931.31;;;12.58;60.73
3440;BME280;1733;42.286;22.690;2023-03-31T19:39:32;94926.28;;;12.46;61.75
3440;BME280;1733;42.286;22.690;2023-03-31T19:41:59;94928.16;;;12.35;62.79
3440;BME280;1733;42.286;22.690;2023-03-31T19:44:26;94930.50;;;12.27;63.58
3440;BME280;1733;42.286;22.690;2023-03-31T19:46:55;94940.25;;;12.26;62.83
3440;BME280;1733;42.286;22.690;2023-03-31T19:49:23;94928.63;;;12.12;63.78
3440;BME280;1733;42.286;22.690;2023-03-31T19:51:50;94925.19;;;12.21;63.96
3440;BME280;1733;42.286;22.690;2023-03-31T19:54:17;94929.94;;;12.14;63.85
3440;BME280;1733;42.286;22.690;2023-03-31T19:56:44;94927.81;;;12.06;64.53
3440;BME280;1733;42.286;22.690;2023-03-31T19:59:11;94925.69;;;12.03;65.42
3440;BME280;1733;42.286;22.690;2023-03-31T20:01:38;94919.91;;;12.01;64.96
3440;BME280;1733;42.286;22.690;2023-03-31T20:04:07;94924.09;;;11.92;65.46
3440;BME280;1733;42.286;22.690;2023-03-31T20:06:34;94929.09;;;11.93;65.26
3440;BME280;1733;42.286;22.690;2023-03-31T20:09:02;94916.16;;;11.87;65.47
3440;BME280;1733;42.286;22.690;2023-03-31T20:11:30;94915.59;;;11.80;65.96
3440;BME280;1733;42.286;22.690;2023-03-31T20:13:58;94907.47;;;11.81;67.26
3440;BME280;1733;42.286;22.690;2023-03-31T20:16:26;94918.75;;;11.71;67.13
3440;BME280;1733;42.286;22.690;2023-03-31T20:18:54;94919.22;;;11.63;67.28
3440;BME280;1733;42.286;22.690;2023-03-31T20:21:25;94928.19;;;11.67;68.17
3440;BME280;1733;42.286;22.690;2023-03-31T20:23:53;94927.66;;;11.70;67.40
3440;BME280;1733;42.286;22.690;2023-03-31T20:26:21;94935.06;;;11.73;67.06
3440;BME280;1733;42.286;22.690;2023-03-31T20:28:49;94936.66;;;11.80;66.63
3440;BME280;1733;42.286;22.690;2023-03-31T20:31:21;94925.03;;;11.70;66.76
3440;BME280;1733;42.286;22.690;2023-03-31T20:33:50;94914.50;;;11.60;68.03
3440;BME280;1733;42.286;22.690;2023-03-31T20:36:19;94918.66;;;11.51;67.64
3440;BME280;1733;42.286;22.690;2023-03-31T20:38:50;94926.25;;;11.42;68.51
3440;BME280;1733;42.286;22.690;2023-03-31T20:41:18;94928.34;;;11.40;68.21
3440;BME280;1733;42.286;22.690;2023-03-31T20:43:46;94936.97;;;11.26;70.59
3440;BME280;1733;42.286;22.690;2023-03-31T20:46:15;94934.28;;;11.21;70.50
3440;BME280;1733;42.286;22.690;2023-03-31T20:48:43;94936.91;;;11.15;70.73
3440;BME280;1733;42.286;22.690;2023-03-31T20:51:12;94925.53;;;11.10;70.79
3440;BME280;1733;42.286;22.690;2023-03-31T20:53:41;94921.34;;;11.09;71.12
3440;BME280;1733;42.286;22.690;2023-03-31T20:56:11;94926.78;;;10.97;71.76
3440;BME280;1733;42.286;22.690;2023-03-31T20:58:38;94930.47;;;11.01;72.19
3440;BME280;1733;42.286;22.690;2023-03-31T21:01:06;94924.66;;;10.94;72.05
3440;BME280;1733;42.286;22.690;2023-03-31T21:03:34;94925.88;;;10.81;73.55
3440;BME280;1733;42.286;22.690;2023-03-31T21:06:01;94923.78;;;10.83;73.79
3440;BME280;1733;42.286;22.690;2023-03-31T21:08:28;94915.63;;;10.80;73.97
3440;BME280;1733;42.286;22.690;2023-03-31T21:10:55;94905.84;;;10.75;74.60
3440;BME280;1733;42.286;22.690;2023-03-31T21:13:25;94903.75;;;10.77;74.60
3440;BME280;1733;42.286;22.690;2023-03-31T21:15:52;94893.56;;;10.86;73.90
3440;BME280;1733;42.286;22.690;2023-03-31T21:18:20;94888.09;;;10.92;72.86
3440;BME280;1733;42.286;22.690;2023-03-31T21:20:50;94895.91;;;10.82;74.32
3440;BME280;1733;42.286;22.690;2023-03-31T21:23:18;94899.88;;;10.85;74.65
3440;BME280;1733;42.286;22.690;2023-03-31T21:25:46;94917.84;;;10.98;72.96
3440;BME280;1733;42.286;22.690;2023-03-31T21:28:14;94912.84;;;10.97;73.17
3440;BME280;1733;42.286;22.690;2023-03-31T21:30:49;94919.94;;;10.96;72.53
3440;BME280;1733;42.286;22.690;2023-03-31T21:33:17;94918.31;;;10.90;72.65
3440;BME280;1733;42.286;22.690;2023-03-31T21:35:44;94917.75;;;10.83;72.92
3440;BME280;1733;42.286;22.690;2023-03-31T21:38:12;94917.69;;;10.78;73.16
3440;BME280;1733;42.286;22.690;2023-03-31T21:40:39;94920.16;;;10.89;72.79
3440;BME280;1733;42.286;22.690;2023-03-31T21:43:06;94914.34;;;10.87;72.67
3440;BME280;1733;42.286;22.690;2023-03-31T21:45:34;94914.34;;;10.87;73.23
3440;BME280;1733;42.286;22.690;2023-03-31T21:48:03;94915.44;;;10.91;72.62
3440;BME280;1733;42.286;22.690;2023-03-31T21:50:31;94908.16;;;11.04;72.21
3440;BME280;1733;42.286;22.690;2023-03-31T21:52:59;94910.03;;;11.08;72.10
3440;BME280;1733;42.286;22.690;2023-03-31T21:55:27;94904.50;;;11.10;72.08
3440;BME280;1733;42.286;22.690;2023-03-31T21:57:54;94912.94;;;11.17;71.92
3440;BME280;1733;42.286;22.690;2023-03-31T22:00:21;94903.78;;;11.19;71.77
3440;BME280;1733;42.286;22.690;2023-03-31T22:02:48;94898.75;;;11.18;72.38
3440;BME280;1733;42.286;22.690;2023-03-31T22:05:17;94905.34;;;11.21;72.48
3440;BME280;1733;42.286;22.690;2023-03-31T22:07:44;94906.91;;;11.16;73.33
3440;BME280;1733;42.286;22.690;2023-03-31T22:10:11;94902.69;;;11.15;73.61
3440;BME280;1733;42.286;22.690;2023-03-31T22:12:38;94897.47;;;11.21;72.75
3440;BME280;1733;42.286;22.690;2023-03-31T22:15:06;94895.66;;;11.26;73.68
3440;BME280;1733;42.286;22.690;2023-03-31T22:17:33;94885.63;;;11.23;73.61
3440;BME280;1733;42.286;22.690;2023-03-31T22:20:00;94892.72;;;11.23;73.55
3440;BME280;1733;42.286;22.690;2023-03-31T22:22:30;94897.72;;;11.24;73.22
3440;BME280;1733;42.286;22.690;2023-03-31T22:24:57;94895.13;;;11.29;70.99
3440;BME280;1733;42.286;22.690;2023-03-31T22:27:23;94883.53;;;11.25;71.69
3440;BME280;1733;42.286;22.690;2023-03-31T22:29:51;94890.13;;;11.28;72.66
3440;BME280;1733;42.286;22.690;2023-03-31T22:32:18;94888.59;;;11.37;71.68
3440;BME280;1733;42.286;22.690;2023-03-31T22:34:45;94889.91;;;11.39;71.74
3440;BME280;1733;42.286;22.690;2023-03-31T22:37:13;94886.75;;;11.37;72.04